Airfield :
LOGIN :

Register | Disclaimer

   EN    FR    IT 

 










Legend :    VFR   Marginal VFR   IFR   Intensive IFR   Very Intensive IFR
Visi :
Ceiling :
>= 8 km
>= 3000ft
5 to 8 km
1000 to 3000 ft
1500m to 5 km
500 to 1000 ft
800 to 1500m
200 to 500 ft
< 800m
< 200 ft
Symbols :   Thunderstorms  Fog  Heavy snow  Heavy precipitations  Wind > 20 kt
SIGMETs :     Misc.  Thunderstorms  Icing  Turbulence  Mountain Waves  Volcanic Ashes






- Airport Elevation : 1460 ft


LSMA - Alpnach

CURRENT METAR :
  • 181220Z 00000KT 8000 -RA SCT015 BKN018 OVC023 03/01 Q1018 RMK WHT

EXPIRED METARs :
  • 181150Z 00000KT 7000 -RASN FEW009 OVC014 01/01 Q1018 RMK GRN
  • 181120Z VRB01KT 6000 -SN FEW002 BKN005 OVC015 01/01 Q1017 RMK YLO
  • 181050Z AUTO VRB01KT 3000NDV R01/1000V1600U R19/1300V2000N -SN FEW002 BKN010 01/00 Q1017 RMK
  • 181020Z AUTO 00000KT 1500NDV R01/1000V1500D R19/1200N -SN VV006 01/01 Q1017 RMK
  • 180950Z VRB01KT 1200 R01/1500U R19/1700U SN VV007 00/00 Q1017 RMK AMB
  • 180920Z 00000KT 1000 R01/1200N R19/1200N SN SCT004 BKN006 OVC009 00/00 Q1016 RMK AMB
  • 180850Z 00000KT 1000 R01/1200V1800D R19/1300N SN SCT003 BKN005 OVC009 00/00 Q1016 RMK AMB
  • 180820Z 00000KT 1200 R01/1100V1900D R19/1300N SN FEW001 BKN006 OVC008 00/00 Q1015 RMK AMB
  • 180750Z 00000KT 2100 -SN VV006 01/00 Q1015 RMK YLO

Expired Forecast.



MET'MAP, your aeronautical weather chart ! - Copyright ORBIFLY December 2007 - Disclaimer

ORBIFLY MET'MAP TEAM :

Programming & Development : Alexandra Zaïnal
Original concept : Baudouin d'Aumeries
Technical & hardware support : Manuel Goepfert
Assistance : Marc-Olivier Méhu




SOURCES & CREDITS :

   NOAA